< < Back
Terminal Aerodrome Forecast


Current Version              Previous Versions:   1  2  3  4  5  6  7  8  9  

Terminal Aerodrome Forecast

418
FTUS42 KFFC 250530
TAFPDK
TAF
KPDK 250530Z 2506/2606 24004KT P6SM SKC
     FM251500 21007KT P6SM SCT220
     FM252100 19006KT P6SM SCT120 OVC200
     FM260000 20004KT P6SM SCT035 OVC050
     FM260500 24005KT P6SM OVC025=

Latest METAR

370
SAUS70 KWBC 252000 RRB
MTRPDK
METAR KPDK 251953Z 22012G19KT 10SM CLR 14/M01 A2978 RMK AO2 SLP089
T01391006 $


USA.gov is the U.S. government's official web portal to all federal, state and local government web resources and services.